Accueil
METAR-TAF:

METAR-TAF

Aéroports :

Fairford, Angleterre

latitude: 51-41N, longitude: 001-47W, altitude: 87 m

Observation

Le bulletin a été fait il y a 41 minutes, à 20:56 UTC
Vent 11 kt de sud-ouest
Température 13°C
Humidité 82%
Pression 1008 hPa
Ciel clair

METAR: EGVA 182056Z AUTO 22011KT M M CLR 13/10 A2976 RMK AO2 RAB05E19DZB19E21 SLP081 P0000 60000 T01340102 52016 RVRNO $

Heure: 22:37 (21:37 UTC)


TAF: absent

Observations et prévisions météorologiques de plus de 4000 aéroports (messages METAR et TAF).

Les stations disponibles sont représentées par des disques jaunes et rouges sur la carte.

Passer la souris dessus pour voir le nom de la station.

Cliquer dessus pour voir les observations et prévisions météorologiques.

Pour changer de carte: cliquez sur les boutons verts avec une croix noire pour zoomer, sur le bouton vert avec un tiret pour effectuer un zoom arrière, ou sur les flèches vertes pour les cartes adjacentes.


METAR-TAF: